sensor_id;sensor_type;location;lat;lon;timestamp;pressure;altitude;pressure_sealevel;temperature;humidity
43147;BME280;28752;48.266;7.402;2022-07-23T00:00:03;99353.00;;;24.06;56.08
43147;BME280;28752;48.266;7.402;2022-07-23T00:02:28;99351.63;;;24.04;57.40
43147;BME280;28752;48.266;7.402;2022-07-23T00:04:54;99340.34;;;24.07;60.19
43147;BME280;28752;48.266;7.402;2022-07-23T00:07:19;99326.72;;;23.90;61.74
43147;BME280;28752;48.266;7.402;2022-07-23T00:09:44;99316.94;;;23.89;62.22
43147;BME280;28752;48.266;7.402;2022-07-23T00:12:10;99314.56;;;23.81;62.31
43147;BME280;28752;48.266;7.402;2022-07-23T00:14:35;99303.03;;;23.62;63.64
43147;BME280;28752;48.266;7.402;2022-07-23T00:17:01;99299.41;;;23.56;64.80
43147;BME280;28752;48.266;7.402;2022-07-23T00:19:26;99305.50;;;23.51;65.28
43147;BME280;28752;48.266;7.402;2022-07-23T00:21:51;99287.06;;;23.48;62.14
43147;BME280;28752;48.266;7.402;2022-07-23T00:24:17;99256.25;;;23.26;62.07
43147;BME280;28752;48.266;7.402;2022-07-23T00:26:42;99281.31;;;23.56;56.93
43147;BME280;28752;48.266;7.402;2022-07-23T00:29:08;99285.66;;;23.57;57.88
43147;BME280;28752;48.266;7.402;2022-07-23T00:31:33;99274.59;;;23.59;60.26
43147;BME280;28752;48.266;7.402;2022-07-23T00:33:58;99284.22;;;23.67;59.68
43147;BME280;28752;48.266;7.402;2022-07-23T00:36:26;99275.31;;;23.78;57.04
43147;BME280;28752;48.266;7.402;2022-07-23T00:38:52;99280.63;;;23.61;59.02
43147;BME280;28752;48.266;7.402;2022-07-23T00:41:17;99273.09;;;23.75;56.35
43147;BME280;28752;48.266;7.402;2022-07-23T00:43:43;99274.38;;;23.72;56.19
43147;BME280;28752;48.266;7.402;2022-07-23T00:46:08;99254.03;;;23.70;55.47
43147;BME280;28752;48.266;7.402;2022-07-23T00:48:33;99244.16;;;23.75;56.32
43147;BME280;28752;48.266;7.402;2022-07-23T00:50:59;99242.41;;;23.81;54.02
43147;BME280;28752;48.266;7.402;2022-07-23T00:53:25;99255.25;;;23.86;55.87
43147;BME280;28752;48.266;7.402;2022-07-23T00:55:50;99242.44;;;23.93;54.59
43147;BME280;28752;48.266;7.402;2022-07-23T00:58:16;99246.50;;;23.95;55.59
43147;BME280;28752;48.266;7.402;2022-07-23T01:00:42;99256.03;;;23.98;54.24
43147;BME280;28752;48.266;7.402;2022-07-23T01:03:07;99248.03;;;23.80;54.46
43147;BME280;28752;48.266;7.402;2022-07-23T01:05:33;99262.38;;;23.80;54.25
43147;BME280;28752;48.266;7.402;2022-07-23T01:07:59;99263.22;;;23.92;52.74
43147;BME280;28752;48.266;7.402;2022-07-23T01:10:25;99263.94;;;23.88;53.95
43147;BME280;28752;48.266;7.402;2022-07-23T01:12:57;99284.50;;;24.01;53.15
43147;BME280;28752;48.266;7.402;2022-07-23T01:15:23;99286.72;;;23.92;54.24
43147;BME280;28752;48.266;7.402;2022-07-23T01:17:49;99297.66;;;23.97;52.55
43147;BME280;28752;48.266;7.402;2022-07-23T01:20:15;99286.69;;;23.80;53.12
43147;BME280;28752;48.266;7.402;2022-07-23T01:22:40;99321.06;;;23.91;56.31
43147;BME280;28752;48.266;7.402;2022-07-23T01:25:06;99326.00;;;23.94;58.25
43147;BME280;28752;48.266;7.402;2022-07-23T01:27:32;99313.50;;;23.82;59.50
43147;BME280;28752;48.266;7.402;2022-07-23T01:29:59;99315.50;;;23.74;62.18
43147;BME280;28752;48.266;7.402;2022-07-23T01:32:25;99330.41;;;23.65;63.64
43147;BME280;28752;48.266;7.402;2022-07-23T01:34:50;99338.13;;;23.38;65.83
43147;BME280;28752;48.266;7.402;2022-07-23T01:37:16;99332.53;;;23.09;66.63
43147;BME280;28752;48.266;7.402;2022-07-23T01:39:41;99340.66;;;22.91;68.09
43147;BME280;28752;48.266;7.402;2022-07-23T01:42:07;99356.44;;;22.75;69.44
43147;BME280;28752;48.266;7.402;2022-07-23T01:44:32;99336.47;;;22.46;70.96
43147;BME280;28752;48.266;7.402;2022-07-23T01:46:57;99360.09;;;22.50;71.26
43147;BME280;28752;48.266;7.402;2022-07-23T01:49:23;99368.47;;;22.42;71.89
43147;BME280;28752;48.266;7.402;2022-07-23T01:51:48;99370.91;;;22.25;72.69
43147;BME280;28752;48.266;7.402;2022-07-23T01:54:27;99376.28;;;22.25;73.68
43147;BME280;28752;48.266;7.402;2022-07-23T01:56:52;99371.47;;;22.09;73.79
43147;BME280;28752;48.266;7.402;2022-07-23T01:59:18;99382.25;;;22.09;74.95
43147;BME280;28752;48.266;7.402;2022-07-23T02:01:43;99381.69;;;22.07;75.39
43147;BME280;28752;48.266;7.402;2022-07-23T02:04:09;99367.81;;;22.03;75.23
43147;BME280;28752;48.266;7.402;2022-07-23T02:06:34;99365.72;;;22.05;74.98
43147;BME280;28752;48.266;7.402;2022-07-23T02:08:59;99376.50;;;22.05;75.47
43147;BME280;28752;48.266;7.402;2022-07-23T02:11:25;99379.06;;;22.18;75.29
43147;BME280;28752;48.266;7.402;2022-07-23T02:13:50;99364.50;;;22.45;72.64
43147;BME280;28752;48.266;7.402;2022-07-23T02:16:16;99359.88;;;22.33;68.77
43147;BME280;28752;48.266;7.402;2022-07-23T02:18:41;99384.16;;;22.27;71.80
43147;BME280;28752;48.266;7.402;2022-07-23T02:21:06;99376.38;;;22.18;73.44
43147;BME280;28752;48.266;7.402;2022-07-23T02:23:32;99371.44;;;22.15;73.96
43147;BME280;28752;48.266;7.402;2022-07-23T02:25:57;99363.03;;;22.24;73.50
43147;BME280;28752;48.266;7.402;2022-07-23T02:28:22;99365.19;;;22.15;74.15
43147;BME280;28752;48.266;7.402;2022-07-23T02:30:48;99378.41;;;22.23;73.38
43147;BME280;28752;48.266;7.402;2022-07-23T02:33:13;99365.72;;;22.24;68.62
43147;BME280;28752;48.266;7.402;2022-07-23T02:35:39;99362.22;;;22.05;68.85
43147;BME280;28752;48.266;7.402;2022-07-23T02:38:04;99353.28;;;22.04;68.45
43147;BME280;28752;48.266;7.402;2022-07-23T02:40:29;99361.69;;;22.14;66.59
43147;BME280;28752;48.266;7.402;2022-07-23T02:42:55;99362.09;;;21.93;68.87
43147;BME280;28752;48.266;7.402;2022-07-23T02:45:20;99379.53;;;21.90;68.45
43147;BME280;28752;48.266;7.402;2022-07-23T02:47:46;99363.59;;;21.89;67.36
43147;BME280;28752;48.266;7.402;2022-07-23T02:50:11;99378.88;;;21.95;68.56
43147;BME280;28752;48.266;7.402;2022-07-23T02:52:37;99371.34;;;21.78;68.59
43147;BME280;28752;48.266;7.402;2022-07-23T02:55:03;99385.25;;;21.75;69.34
43147;BME280;28752;48.266;7.402;2022-07-23T02:57:28;99387.25;;;21.87;68.75
43147;BME280;28752;48.266;7.402;2022-07-23T02:59:54;99398.72;;;21.75;69.31
43147;BME280;28752;48.266;7.402;2022-07-23T03:02:19;99400.72;;;21.87;68.65
43147;BME280;28752;48.266;7.402;2022-07-23T03:04:45;99411.25;;;21.63;69.85
43147;BME280;28752;48.266;7.402;2022-07-23T03:07:10;99413.50;;;21.73;69.29
43147;BME280;28752;48.266;7.402;2022-07-23T03:09:36;99419.63;;;21.55;70.76
43147;BME280;28752;48.266;7.402;2022-07-23T03:12:01;99416.31;;;21.53;71.42
43147;BME280;28752;48.266;7.402;2022-07-23T03:14:26;99428.75;;;21.54;71.87
43147;BME280;28752;48.266;7.402;2022-07-23T03:16:53;99421.09;;;21.51;71.70
43147;BME280;28752;48.266;7.402;2022-07-23T03:19:19;99429.38;;;21.49;72.72
43147;BME280;28752;48.266;7.402;2022-07-23T03:21:45;99422.31;;;21.55;66.02
43147;BME280;28752;48.266;7.402;2022-07-23T03:24:10;99418.97;;;21.85;63.90
43147;BME280;28752;48.266;7.402;2022-07-23T03:26:36;99424.88;;;21.75;67.92
43147;BME280;28752;48.266;7.402;2022-07-23T03:29:02;99435.59;;;21.81;67.75
43147;BME280;28752;48.266;7.402;2022-07-23T03:31:29;99431.34;;;21.67;68.44
43147;BME280;28752;48.266;7.402;2022-07-23T03:33:55;99439.44;;;21.67;66.65
43147;BME280;28752;48.266;7.402;2022-07-23T03:36:21;99416.44;;;21.64;66.06
43147;BME280;28752;48.266;7.402;2022-07-23T03:38:46;99424.75;;;21.88;65.24
43147;BME280;28752;48.266;7.402;2022-07-23T03:41:11;99409.22;;;22.09;64.80
43147;BME280;28752;48.266;7.402;2022-07-23T03:43:37;99425.44;;;22.27;64.63
43147;BME280;28752;48.266;7.402;2022-07-23T03:46:02;99426.63;;;22.13;65.20
43147;BME280;28752;48.266;7.402;2022-07-23T03:48:28;99422.13;;;22.25;64.86
43147;BME280;28752;48.266;7.402;2022-07-23T03:50:53;99424.38;;;22.10;65.81
43147;BME280;28752;48.266;7.402;2022-07-23T03:53:18;99435.25;;;21.96;66.80
43147;BME280;28752;48.266;7.402;2022-07-23T03:55:44;99430.97;;;21.89;67.21
43147;BME280;28752;48.266;7.402;2022-07-23T03:58:09;99443.22;;;21.85;69.03
43147;BME280;28752;48.266;7.402;2022-07-23T04:00:35;99443.50;;;21.76;69.15
43147;BME280;28752;48.266;7.402;2022-07-23T04:03:00;99445.38;;;21.76;69.35
43147;BME280;28752;48.266;7.402;2022-07-23T04:05:25;99447.88;;;21.77;68.90
43147;BME280;28752;48.266;7.402;2022-07-23T04:07:51;99452.38;;;21.83;69.82
43147;BME280;28752;48.266;7.402;2022-07-23T04:10:16;99453.19;;;21.84;69.55
43147;BME280;28752;48.266;7.402;2022-07-23T04:12:42;99441.81;;;21.82;71.24
43147;BME280;28752;48.266;7.402;2022-07-23T04:15:08;99443.19;;;21.91;69.25
43147;BME280;28752;48.266;7.402;2022-07-23T04:17:34;99422.94;;;21.82;69.99
43147;BME280;28752;48.266;7.402;2022-07-23T04:19:59;99427.69;;;21.87;69.55
43147;BME280;28752;48.266;7.402;2022-07-23T04:22:24;99443.13;;;21.98;71.16
43147;BME280;28752;48.266;7.402;2022-07-23T04:24:50;99442.31;;;21.97;70.25
43147;BME280;28752;48.266;7.402;2022-07-23T04:27:16;99460.63;;;22.14;69.01
43147;BME280;28752;48.266;7.402;2022-07-23T04:29:41;99436.50;;;21.94;69.20
43147;BME280;28752;48.266;7.402;2022-07-23T04:32:06;99442.53;;;21.96;69.06
43147;BME280;28752;48.266;7.402;2022-07-23T04:34:32;99426.47;;;21.82;69.57
43147;BME280;28752;48.266;7.402;2022-07-23T04:36:58;99453.03;;;22.04;70.71
43147;BME280;28752;48.266;7.402;2022-07-23T04:39:23;99443.91;;;22.05;70.93
43147;BME280;28752;48.266;7.402;2022-07-23T04:41:48;99444.50;;;22.07;71.08
43147;BME280;28752;48.266;7.402;2022-07-23T04:44:14;99461.16;;;22.23;71.79
43147;BME280;28752;48.266;7.402;2022-07-23T04:46:39;99459.81;;;22.39;71.47
43147;BME280;28752;48.266;7.402;2022-07-23T04:49:05;99445.09;;;22.34;72.04
43147;BME280;28752;48.266;7.402;2022-07-23T04:51:30;99463.31;;;22.39;72.19
43147;BME280;28752;48.266;7.402;2022-07-23T04:53:56;99451.81;;;22.50;72.00
43147;BME280;28752;48.266;7.402;2022-07-23T04:56:21;99428.88;;;22.41;71.64
43147;BME280;28752;48.266;7.402;2022-07-23T04:58:47;99449.09;;;22.50;71.56
43147;BME280;28752;48.266;7.402;2022-07-23T05:01:12;99472.63;;;22.80;72.05
43147;BME280;28752;48.266;7.402;2022-07-23T05:03:38;99446.78;;;22.73;71.95
43147;BME280;28752;48.266;7.402;2022-07-23T05:06:03;99453.38;;;22.95;72.20
43147;BME280;28752;48.266;7.402;2022-07-23T05:08:29;99461.47;;;22.95;72.07
43147;BME280;28752;48.266;7.402;2022-07-23T05:10:54;99466.94;;;23.07;71.66
43147;BME280;28752;48.266;7.402;2022-07-23T05:13:20;99467.75;;;23.07;71.00
43147;BME280;28752;48.266;7.402;2022-07-23T05:15:45;99462.00;;;23.04;70.72
43147;BME280;28752;48.266;7.402;2022-07-23T05:18:11;99474.16;;;23.13;71.15
43147;BME280;28752;48.266;7.402;2022-07-23T05:20:37;99464.84;;;23.09;71.75
43147;BME280;28752;48.266;7.402;2022-07-23T05:23:02;99454.94;;;23.03;71.88
43147;BME280;28752;48.266;7.402;2022-07-23T05:25:28;99469.28;;;23.22;71.24
43147;BME280;28752;48.266;7.402;2022-07-23T05:27:53;99447.75;;;23.15;71.05
43147;BME280;28752;48.266;7.402;2022-07-23T05:30:19;99475.44;;;23.41;71.35
43147;BME280;28752;48.266;7.402;2022-07-23T05:32:44;99460.22;;;23.47;70.47
43147;BME280;28752;48.266;7.402;2022-07-23T05:35:10;99476.63;;;23.75;69.35
43147;BME280;28752;48.266;7.402;2022-07-23T05:37:36;99472.25;;;23.93;68.32
43147;BME280;28752;48.266;7.402;2022-07-23T05:40:06;99486.69;;;23.99;67.90
43147;BME280;28752;48.266;7.402;2022-07-23T05:42:36;99479.78;;;24.03;67.49
43147;BME280;28752;48.266;7.402;2022-07-23T05:45:02;99489.75;;;24.14;66.71
43147;BME280;28752;48.266;7.402;2022-07-23T05:47:28;99500.34;;;24.16;66.82
43147;BME280;28752;48.266;7.402;2022-07-23T05:49:53;99488.13;;;24.01;67.52
43147;BME280;28752;48.266;7.402;2022-07-23T05:52:19;99491.88;;;24.00;68.52
43147;BME280;28752;48.266;7.402;2022-07-23T05:54:44;99470.88;;;23.84;69.42
43147;BME280;28752;48.266;7.402;2022-07-23T05:57:10;99470.00;;;23.90;69.24
43147;BME280;28752;48.266;7.402;2022-07-23T05:59:35;99491.88;;;24.12;69.22
43147;BME280;28752;48.266;7.402;2022-07-23T06:02:00;99489.44;;;24.22;68.55
43147;BME280;28752;48.266;7.402;2022-07-23T06:04:26;99484.25;;;24.44;67.31
43147;BME280;28752;48.266;7.402;2022-07-23T06:06:51;99493.94;;;24.52;66.55
43147;BME280;28752;48.266;7.402;2022-07-23T06:09:17;99489.22;;;24.59;66.13
43147;BME280;28752;48.266;7.402;2022-07-23T06:11:43;99497.19;;;24.78;66.38
43147;BME280;28752;48.266;7.402;2022-07-23T06:14:08;99486.97;;;24.92;64.45
43147;BME280;28752;48.266;7.402;2022-07-23T06:16:34;99476.59;;;25.58;63.38
43147;BME280;28752;48.266;7.402;2022-07-23T06:18:59;99491.63;;;26.46;58.22
43147;BME280;28752;48.266;7.402;2022-07-23T06:21:24;99476.44;;;26.84;57.14
43147;BME280;28752;48.266;7.402;2022-07-23T06:23:50;99496.97;;;27.41;54.30
43147;BME280;28752;48.266;7.402;2022-07-23T06:26:15;99478.00;;;27.78;53.46
43147;BME280;28752;48.266;7.402;2022-07-23T06:28:40;99503.56;;;28.37;51.92
43147;BME280;28752;48.266;7.402;2022-07-23T06:31:06;99501.16;;;28.83;49.60
43147;BME280;28752;48.266;7.402;2022-07-23T06:33:31;99514.50;;;29.64;47.97
43147;BME280;28752;48.266;7.402;2022-07-23T06:35:57;99510.50;;;29.97;46.30
43147;BME280;28752;48.266;7.402;2022-07-23T06:38:22;99507.50;;;30.19;44.65
43147;BME280;28752;48.266;7.402;2022-07-23T06:40:47;99514.31;;;30.53;44.43
43147;BME280;28752;48.266;7.402;2022-07-23T06:43:13;99513.94;;;30.90;42.81
43147;BME280;28752;48.266;7.402;2022-07-23T06:45:38;99511.47;;;30.99;42.37
43147;BME280;28752;48.266;7.402;2022-07-23T06:48:04;99518.28;;;30.96;42.73
43147;BME280;28752;48.266;7.402;2022-07-23T06:50:29;99519.47;;;30.75;43.02
43147;BME280;28752;48.266;7.402;2022-07-23T06:52:55;99513.22;;;30.38;44.21
43147;BME280;28752;48.266;7.402;2022-07-23T06:55:20;99499.88;;;30.11;44.59
43147;BME280;28752;48.266;7.402;2022-07-23T06:57:45;99517.88;;;29.91;43.75
43147;BME280;28752;48.266;7.402;2022-07-23T07:00:11;99520.31;;;30.13;43.55
43147;BME280;28752;48.266;7.402;2022-07-23T07:02:37;99512.69;;;30.41;42.62
43147;BME280;28752;48.266;7.402;2022-07-23T07:05:02;99510.72;;;30.73;40.34
43147;BME280;28752;48.266;7.402;2022-07-23T07:07:28;99501.66;;;30.88;39.62
43147;BME280;28752;48.266;7.402;2022-07-23T07:09:53;99511.22;;;30.90;40.03
43147;BME280;28752;48.266;7.402;2022-07-23T07:12:19;99512.88;;;30.81;40.70
43147;BME280;28752;48.266;7.402;2022-07-23T07:14:44;99519.22;;;31.42;40.97
43147;BME280;28752;48.266;7.402;2022-07-23T07:17:09;99515.50;;;32.12;39.12
43147;BME280;28752;48.266;7.402;2022-07-23T07:19:36;99513.13;;;32.88;37.14
43147;BME280;28752;48.266;7.402;2022-07-23T07:22:02;99510.06;;;33.76;36.86
43147;BME280;28752;48.266;7.402;2022-07-23T07:24:27;99505.53;;;33.85;35.43
43147;BME280;28752;48.266;7.402;2022-07-23T07:26:52;99510.13;;;33.90;34.88
43147;BME280;28752;48.266;7.402;2022-07-23T07:29:18;99503.50;;;34.24;35.14
43147;BME280;28752;48.266;7.402;2022-07-23T07:31:43;99520.03;;;34.05;34.63
43147;BME280;28752;48.266;7.402;2022-07-23T07:34:09;99514.38;;;34.62;32.85
43147;BME280;28752;48.266;7.402;2022-07-23T07:36:35;99517.94;;;35.18;32.53
43147;BME280;28752;48.266;7.402;2022-07-23T07:39:03;99522.13;;;35.43;31.85
43147;BME280;28752;48.266;7.402;2022-07-23T07:41:29;99533.25;;;35.74;32.67
43147;BME280;28752;48.266;7.402;2022-07-23T07:43:55;99517.88;;;35.09;32.73
43147;BME280;28752;48.266;7.402;2022-07-23T07:46:20;99524.47;;;35.72;33.45
43147;BME280;28752;48.266;7.402;2022-07-23T07:48:45;99524.47;;;35.36;33.59
43147;BME280;28752;48.266;7.402;2022-07-23T07:51:11;99530.94;;;35.54;31.56
43147;BME280;28752;48.266;7.402;2022-07-23T07:53:36;99536.19;;;36.46;31.51
43147;BME280;28752;48.266;7.402;2022-07-23T07:56:02;99536.97;;;37.18;30.29
43147;BME280;28752;48.266;7.402;2022-07-23T07:58:27;99533.47;;;37.53;28.01
43147;BME280;28752;48.266;7.402;2022-07-23T08:00:52;99534.13;;;38.02;27.66
43147;BME280;28752;48.266;7.402;2022-07-23T08:03:18;99545.81;;;38.16;27.23
43147;BME280;28752;48.266;7.402;2022-07-23T08:05:43;99531.38;;;37.93;27.16
43147;BME280;28752;48.266;7.402;2022-07-23T08:08:09;99547.84;;;37.14;27.91
43147;BME280;28752;48.266;7.402;2022-07-23T08:10:40;99547.63;;;36.08;28.98
43147;BME280;28752;48.266;7.402;2022-07-23T08:13:05;99549.13;;;35.91;28.42
43147;BME280;28752;48.266;7.402;2022-07-23T08:15:31;99544.47;;;36.46;28.93
43147;BME280;28752;48.266;7.402;2022-07-23T08:17:57;99557.34;;;36.59;27.82
43147;BME280;28752;48.266;7.402;2022-07-23T08:20:23;99555.28;;;36.42;28.57
43147;BME280;28752;48.266;7.402;2022-07-23T08:25:20;99545.69;;;35.08;30.94
43147;BME280;28752;48.266;7.402;2022-07-23T08:27:46;99548.66;;;34.17;31.82
43147;BME280;28752;48.266;7.402;2022-07-23T08:30:12;99546.16;;;33.64;32.97
43147;BME280;28752;48.266;7.402;2022-07-23T08:32:52;99548.00;;;33.31;33.45
43147;BME280;28752;48.266;7.402;2022-07-23T08:35:22;99549.84;;;33.11;34.58
43147;BME280;28752;48.266;7.402;2022-07-23T08:37:48;99528.03;;;33.01;35.68
43147;BME280;28752;48.266;7.402;2022-07-23T08:40:13;99542.47;;;32.87;34.48
43147;BME280;28752;48.266;7.402;2022-07-23T08:42:39;99546.69;;;32.45;34.73
43147;BME280;28752;48.266;7.402;2022-07-23T08:45:07;99552.63;;;31.83;35.28
43147;BME280;28752;48.266;7.402;2022-07-23T08:47:33;99551.03;;;31.77;37.07
43147;BME280;28752;48.266;7.402;2022-07-23T08:49:59;99540.19;;;31.62;37.30
43147;BME280;28752;48.266;7.402;2022-07-23T08:52:26;99555.63;;;31.32;37.87
43147;BME280;28752;48.266;7.402;2022-07-23T08:54:51;99552.66;;;31.23;39.50
43147;BME280;28752;48.266;7.402;2022-07-23T08:57:18;99540.38;;;31.15;39.43
43147;BME280;28752;48.266;7.402;2022-07-23T08:59:43;99549.03;;;31.38;39.43
43147;BME280;28752;48.266;7.402;2022-07-23T09:02:08;99544.06;;;31.56;37.93
43147;BME280;28752;48.266;7.402;2022-07-23T09:04:34;99540.13;;;31.72;39.65
43147;BME280;28752;48.266;7.402;2022-07-23T09:07:01;99549.47;;;32.05;38.74
43147;BME280;28752;48.266;7.402;2022-07-23T09:09:27;99556.00;;;32.15;37.86
43147;BME280;28752;48.266;7.402;2022-07-23T09:12:07;99558.75;;;32.10;38.96
43147;BME280;28752;48.266;7.402;2022-07-23T09:14:43;99567.25;;;32.13;39.58
43147;BME280;28752;48.266;7.402;2022-07-23T09:17:16;99561.28;;;32.01;39.95
43147;BME280;28752;48.266;7.402;2022-07-23T09:19:43;99550.06;;;32.02;40.20
43147;BME280;28752;48.266;7.402;2022-07-23T09:22:25;99563.97;;;32.11;39.70
43147;BME280;28752;48.266;7.402;2022-07-23T09:25:08;99563.75;;;32.02;39.75
43147;BME280;28752;48.266;7.402;2022-07-23T09:27:59;99562.25;;;32.20;37.93
43147;BME280;28752;48.266;7.402;2022-07-23T09:30:31;99559.31;;;32.06;39.00
43147;BME280;28752;48.266;7.402;2022-07-23T09:33:14;99559.66;;;32.00;38.79
43147;BME280;28752;48.266;7.402;2022-07-23T09:35:55;99557.59;;;31.76;38.49
43147;BME280;28752;48.266;7.402;2022-07-23T09:38:24;99566.94;;;31.75;38.50
43147;BME280;28752;48.266;7.402;2022-07-23T09:41:11;99569.72;;;31.65;38.99
43147;BME280;28752;48.266;7.402;2022-07-23T09:43:38;99570.31;;;31.51;38.82
43147;BME280;28752;48.266;7.402;2022-07-23T09:46:25;99572.97;;;31.07;39.45
43147;BME280;28752;48.266;7.402;2022-07-23T09:48:53;99560.38;;;31.11;39.92
43147;BME280;28752;48.266;7.402;2022-07-23T09:51:19;99578.06;;;31.29;41.15
43147;BME280;28752;48.266;7.402;2022-07-23T09:53:51;99569.63;;;31.25;40.66
43147;BME280;28752;48.266;7.402;2022-07-23T09:56:17;99579.16;;;31.33;41.30
43147;BME280;28752;48.266;7.402;2022-07-23T09:58:44;99580.28;;;31.27;41.25
43147;BME280;28752;48.266;7.402;2022-07-23T10:01:14;99569.63;;;31.25;41.36
43147;BME280;28752;48.266;7.402;2022-07-23T10:03:41;99587.06;;;31.40;40.69
43147;BME280;28752;48.266;7.402;2022-07-23T10:06:09;99570.63;;;31.40;40.53
43147;BME280;28752;48.266;7.402;2022-07-23T10:08:35;99589.13;;;31.68;40.23
43147;BME280;28752;48.266;7.402;2022-07-23T10:11:03;99592.28;;;31.91;40.23
43147;BME280;28752;48.266;7.402;2022-07-23T10:13:29;99564.34;;;31.94;40.71
43147;BME280;28752;48.266;7.402;2022-07-23T10:16:14;99586.88;;;32.20;38.80
43147;BME280;28752;48.266;7.402;2022-07-23T10:18:39;99594.78;;;32.27;37.80
43147;BME280;28752;48.266;7.402;2022-07-23T10:21:07;99598.03;;;31.95;37.56
43147;BME280;28752;48.266;7.402;2022-07-23T10:23:50;99597.84;;;31.76;38.20
43147;BME280;28752;48.266;7.402;2022-07-23T10:26:32;99598.53;;;31.97;39.79
43147;BME280;28752;48.266;7.402;2022-07-23T10:29:06;99598.56;;;31.92;38.62
43147;BME280;28752;48.266;7.402;2022-07-23T10:32:02;99584.16;;;31.76;39.15
43147;BME280;28752;48.266;7.402;2022-07-23T10:40:20;99605.06;;;32.06;39.81
43147;BME280;28752;48.266;7.402;2022-07-23T10:42:48;99586.44;;;32.03;38.32
43147;BME280;28752;48.266;7.402;2022-07-23T10:47:55;99575.53;;;32.37;39.28
43147;BME280;28752;48.266;7.402;2022-07-23T10:58:03;99567.53;;;32.12;38.81
43147;BME280;28752;48.266;7.402;2022-07-23T11:00:30;99580.47;;;32.35;39.69
43147;BME280;28752;48.266;7.402;2022-07-23T11:03:27;99587.72;;;32.55;38.94
43147;BME280;28752;48.266;7.402;2022-07-23T11:05:51;99578.16;;;32.48;37.56
43147;BME280;28752;48.266;7.402;2022-07-23T11:08:20;99584.41;;;32.58;37.58
43147;BME280;28752;48.266;7.402;2022-07-23T11:32:03;99579.09;;;32.97;35.97
43147;BME280;28752;48.266;7.402;2022-07-23T11:37:06;99575.50;;;32.72;37.47
43147;BME280;28752;48.266;7.402;2022-07-23T11:39:32;99563.56;;;32.57;37.11
43147;BME280;28752;48.266;7.402;2022-07-23T11:41:59;99574.97;;;32.40;38.18
43147;BME280;28752;48.266;7.402;2022-07-23T11:46:57;99568.16;;;32.67;37.97
43147;BME280;28752;48.266;7.402;2022-07-23T11:49:23;99556.88;;;32.39;38.23
43147;BME280;28752;48.266;7.402;2022-07-23T11:52:09;99575.06;;;32.59;37.67
43147;BME280;28752;48.266;7.402;2022-07-23T11:54:37;99573.44;;;32.88;36.83
43147;BME280;28752;48.266;7.402;2022-07-23T11:57:11;99538.03;;;32.62;35.79
43147;BME280;28752;48.266;7.402;2022-07-23T11:59:38;99567.59;;;32.94;36.58
43147;BME280;28752;48.266;7.402;2022-07-23T12:02:05;99559.31;;;32.75;36.21
43147;BME280;28752;48.266;7.402;2022-07-23T12:04:47;99565.50;;;32.86;36.78
43147;BME280;28752;48.266;7.402;2022-07-23T12:07:46;99556.16;;;32.58;37.37
43147;BME280;28752;48.266;7.402;2022-07-23T12:12:56;99554.66;;;32.41;37.85
43147;BME280;28752;48.266;7.402;2022-07-23T12:15:22;99566.34;;;32.52;38.43
43147;BME280;28752;48.266;7.402;2022-07-23T12:17:50;99556.81;;;32.45;38.28
43147;BME280;28752;48.266;7.402;2022-07-23T12:20:19;99544.56;;;32.37;39.07
43147;BME280;28752;48.266;7.402;2022-07-23T12:22:47;99549.59;;;32.30;38.27
43147;BME280;28752;48.266;7.402;2022-07-23T12:25:18;99553.38;;;32.34;38.69
43147;BME280;28752;48.266;7.402;2022-07-23T12:27:45;99542.59;;;32.13;38.59
43147;BME280;28752;48.266;7.402;2022-07-23T12:30:49;99544.97;;;32.25;39.60
43147;BME280;28752;48.266;7.402;2022-07-23T12:33:20;99545.00;;;32.20;38.36
43147;BME280;28752;48.266;7.402;2022-07-23T12:35:46;99563.41;;;32.09;38.37
43147;BME280;28752;48.266;7.402;2022-07-23T12:38:15;99564.66;;;31.87;38.81
43147;BME280;28752;48.266;7.402;2022-07-23T12:51:24;99573.31;;;31.55;39.46
43147;BME280;28752;48.266;7.402;2022-07-23T12:53:54;99575.81;;;31.41;40.05
43147;BME280;28752;48.266;7.402;2022-07-23T12:56:21;99569.06;;;31.23;40.71
43147;BME280;28752;48.266;7.402;2022-07-23T12:58:51;99561.78;;;30.88;40.97
43147;BME280;28752;48.266;7.402;2022-07-23T13:04:18;99564.22;;;30.94;41.72
43147;BME280;28752;48.266;7.402;2022-07-23T13:06:56;99568.59;;;30.95;41.44
43147;BME280;28752;48.266;7.402;2022-07-23T13:09:30;99560.44;;;30.80;41.18
43147;BME280;28752;48.266;7.402;2022-07-23T13:11:57;99560.41;;;30.90;41.80
43147;BME280;28752;48.266;7.402;2022-07-23T13:14:23;99557.06;;;31.14;42.44
43147;BME280;28752;48.266;7.402;2022-07-23T13:16:51;99551.59;;;31.19;40.89
43147;BME280;28752;48.266;7.402;2022-07-23T13:19:18;99567.91;;;31.40;40.55
43147;BME280;28752;48.266;7.402;2022-07-23T13:21:44;99563.72;;;31.63;40.15
43147;BME280;28752;48.266;7.402;2022-07-23T13:24:10;99555.38;;;31.83;40.62
43147;BME280;28752;48.266;7.402;2022-07-23T13:26:38;99557.75;;;31.95;39.31
43147;BME280;28752;48.266;7.402;2022-07-23T13:29:04;99546.75;;;32.00;39.39
43147;BME280;28752;48.266;7.402;2022-07-23T13:31:30;99547.16;;;32.23;39.78
43147;BME280;28752;48.266;7.402;2022-07-23T13:33:55;99548.50;;;32.26;39.42
43147;BME280;28752;48.266;7.402;2022-07-23T13:36:21;99541.56;;;31.99;39.10
43147;BME280;28752;48.266;7.402;2022-07-23T13:38:46;99546.25;;;31.98;40.32
43147;BME280;28752;48.266;7.402;2022-07-23T13:41:12;99544.31;;;31.49;40.34
43147;BME280;28752;48.266;7.402;2022-07-23T13:43:37;99536.81;;;31.75;40.79
43147;BME280;28752;48.266;7.402;2022-07-23T13:46:03;99546.50;;;31.57;40.28
43147;BME280;28752;48.266;7.402;2022-07-23T13:48:28;99534.84;;;31.36;40.09
43147;BME280;28752;48.266;7.402;2022-07-23T13:50:55;99540.44;;;31.05;41.02
43147;BME280;28752;48.266;7.402;2022-07-23T13:53:23;99548.94;;;31.04;40.77
43147;BME280;28752;48.266;7.402;2022-07-23T13:55:50;99533.59;;;30.97;41.08
43147;BME280;28752;48.266;7.402;2022-07-23T13:58:17;99540.97;;;31.07;41.17
43147;BME280;28752;48.266;7.402;2022-07-23T14:00:45;99538.66;;;31.35;41.52